Time;durP1;ratioP1;P1;durP2;ratioP2;P2;SDS_P1;SDS_P2;PMS_P1;PMS_P2;Temp;Humidity;BMP_temperature;BMP_pressure;BME280_temperature;BME280_humidity;BME280_pressure;Samples;Min_cycle;Max_cycle;Signal;HPM_P1;HPM_P2
2023/01/29 00:00:11;;;;;;;9.53;5.47;;;-1.00;99.90;;;-141.84;68.30;18864.84;5041281;28;20195;-59
2023/01/29 00:02:40;;;;;;;5.17;4.47;;;-1.00;99.90;;;-141.84;68.17;18834.38;5037638;28;20207;-57
2023/01/29 00:05:09;;;;;;;5.57;4.03;;;-1.00;99.90;;;-141.84;68.65;18877.03;5036097;28;20229;-58
2023/01/29 00:07:54;;;;;;;6.30;4.40;;;-1.10;99.90;;;-141.84;68.39;18872.97;5042455;28;20674;-59
2023/01/29 00:10:25;;;;;;;4.90;4.40;;;-1.10;99.90;;;-141.84;68.85;18893.28;5046964;28;20231;-60
2023/01/29 00:12:54;;;;;;;4.40;4.00;;;-1.10;99.90;;;-141.84;69.17;18854.69;5036195;28;20310;-59
2023/01/29 00:15:22;;;;;;;4.70;3.90;;;-1.20;99.90;;;-141.84;69.25;18848.59;5046700;28;20303;-59
2023/01/29 00:17:50;;;;;;;4.67;4.17;;;-1.20;99.90;;;-141.84;69.47;18852.66;5042838;28;20198;-60
2023/01/29 00:20:18;;;;;;;4.90;4.17;;;-1.20;99.90;;;-141.84;69.46;18844.53;5038961;28;20229;-58
2023/01/29 00:22:47;;;;;;;4.87;3.90;;;-1.10;99.90;;;-141.84;69.38;18840.47;5049022;28;20243;-59
2023/01/29 00:25:15;;;;;;;4.70;4.03;;;-1.20;99.90;;;-141.84;68.90;18826.25;5037332;28;20232;-58
2023/01/29 00:27:45;;;;;;;4.33;3.90;;;-1.20;99.90;;;-141.84;69.38;18868.91;5043711;28;20226;-60
2023/01/29 00:30:17;;;;;;;4.10;3.70;;;-1.20;99.90;;;-141.84;69.58;18834.38;5045264;28;20304;-59
2023/01/29 00:32:46;;;;;;;5.33;4.00;;;-1.20;99.90;;;-141.84;68.22;18875.00;5047678;28;20255;-57
2023/01/29 00:35:15;;;;;;;5.17;4.07;;;-1.20;99.90;;;-141.84;68.05;18844.53;5049845;28;20231;-59
2023/01/29 00:37:43;;;;;;;7.80;5.23;;;-1.10;99.90;;;-141.84;68.99;18842.50;5032537;28;20723;-60
2023/01/29 00:40:12;;;;;;;5.23;3.97;;;-1.20;99.90;;;-141.84;69.42;18860.78;5032493;28;20588;-60
2023/01/29 00:45:27;;;;;;;5.60;4.43;;;-1.30;99.90;;;-141.84;69.59;18844.53;5032471;28;20248;-61
2023/01/29 00:47:55;;;;;;;5.33;4.63;;;-1.30;99.90;;;-141.84;69.87;18812.00;5032327;28;20198;-58
2023/01/29 00:50:23;;;;;;;5.33;4.47;;;-1.30;99.90;;;-141.84;69.94;18840.47;5024473;28;20231;-57
2023/01/29 00:52:53;;;;;;;5.60;4.60;;;-1.40;99.90;;;-141.84;69.95;18822.19;5051797;28;20233;-60
2023/01/29 00:55:22;;;;;;;5.17;4.57;;;-1.40;99.90;;;-141.84;69.17;18850.63;5052023;28;20232;-59
2023/01/29 00:57:50;;;;;;;9.20;4.83;;;-1.40;99.90;;;-141.84;69.25;18883.13;5052283;28;20313;-58
2023/01/29 01:00:19;;;;;;;5.73;4.43;;;-1.40;99.90;;;-141.84;69.59;18852.66;5051969;28;20573;-59
2023/01/29 01:03:06;;;;;;;5.30;4.80;;;-1.40;99.90;;;-141.84;70.17;18846.56;5033639;28;20658;-60
2023/01/29 01:05:35;;;;;;;6.10;4.90;;;-1.40;99.90;;;-141.84;70.39;18866.88;5032001;28;20210;-60
2023/01/29 01:10:19;;;;;;;6.10;4.73;;;-1.50;99.90;;;-141.84;70.67;18850.63;5031849;28;20281;-59
2023/01/29 01:11:00;;;;;;;6.53;5.03;;;-1.50;99.90;;;-141.84;69.47;18830.31;5031658;28;20233;-59
2023/01/29 01:13:28;;;;;;;7.03;5.47;;;-1.50;99.90;;;-141.84;69.31;18844.53;5031720;28;20233;-61
2023/01/29 01:15:56;;;;;;;6.80;5.37;;;-1.40;99.90;;;-141.84;69.83;18840.47;5030724;28;20238;-59
2023/01/29 01:18:29;;;;;;;5.63;5.03;;;-1.50;99.90;;;-141.84;69.89;18838.44;5049901;28;20233;-61
2023/01/29 01:20:58;;;;;;;7.13;4.90;;;-1.50;99.90;;;-141.84;69.51;18844.53;5051914;28;20182;-59
2023/01/29 01:23:26;;;;;;;5.77;5.13;;;-1.50;99.90;;;-141.84;69.69;18830.31;5052247;28;20205;-60
2023/01/29 01:25:55;;;;;;;7.27;5.17;;;-1.50;99.90;;;-141.84;69.58;18846.56;5044923;28;20677;-59
2023/01/29 01:28:23;;;;;;;5.93;5.00;;;-1.50;99.90;;;-141.84;69.48;18826.25;5043865;28;20315;-63
2023/01/29 01:30:51;;;;;;;7.17;5.33;;;-1.50;99.90;;;-141.84;70.14;18826.25;5048957;28;20236;-62
2023/01/29 01:33:19;;;;;;;5.80;5.20;;;-1.50;99.90;;;-141.84;70.34;18807.94;5049007;28;20242;-63
2023/01/29 01:35:48;;;;;;;7.67;5.10;;;-1.60;99.90;;;-141.84;69.56;18858.75;5051604;28;20211;-63
2023/01/29 01:38:17;;;;;;;7.70;5.47;;;-1.50;99.90;;;-141.84;69.75;18824.22;5051231;28;20228;-63
2023/01/29 01:40:46;;;;;;;7.50;5.23;;;-1.50;99.90;;;-141.84;70.34;18868.91;5051143;28;20228;-62
2023/01/29 01:43:14;;;;;;;6.97;5.27;;;-1.60;99.90;;;-141.84;69.96;18826.25;5051274;28;20250;-63
2023/01/29 01:45:45;;;;;;;8.00;5.43;;;-1.60;99.90;;;-141.84;70.59;18846.56;5050968;28;20232;-63
2023/01/29 01:48:19;;;;;;;6.60;5.40;;;-1.60;99.90;;;-141.84;70.43;18852.66;5034450;28;20277;-64
2023/01/29 01:50:56;;;;;;;6.63;5.20;;;-1.60;99.90;;;-141.84;70.56;18814.03;5038464;28;20227;-63
2023/01/29 01:53:33;;;;;;;8.90;5.90;;;-1.60;99.90;;;-141.84;71.20;18816.06;5050958;28;20224;-64
2023/01/29 01:56:07;;;;;;;8.33;5.93;;;-1.70;99.90;;;-141.84;71.47;18824.22;5051004;28;20251;-63
2023/01/29 01:58:42;;;;;;;8.50;5.77;;;-1.70;99.90;;;-141.84;71.48;18820.16;5050996;28;20704;-64
2023/01/29 02:01:11;;;;;;;8.37;6.03;;;-1.70;99.90;;;-141.84;71.94;18822.19;5050833;28;20228;-63
2023/01/29 02:09:32;;;;;;;7.70;6.23;;;-1.80;99.90;;;-141.84;71.89;18791.69;5050953;28;20243;-63
2023/01/29 02:12:02;;;;;;;8.77;6.47;;;-1.80;99.90;;;-141.84;72.41;18820.16;5050838;28;20212;-62
2023/01/29 02:14:33;;;;;;;7.83;5.87;;;-1.80;99.90;;;-141.84;72.41;18818.09;5051243;28;20240;-63
2023/01/29 02:17:01;;;;;;;9.97;6.47;;;-1.80;99.90;;;-141.84;72.62;18842.50;5050603;28;20232;-63
2023/01/29 02:19:45;;;;;;;11.10;6.87;;;-1.80;99.90;;;-141.84;72.01;18795.75;5050565;28;20692;-61
2023/01/29 02:22:46;;;;;;;9.83;6.23;;;-1.80;99.90;;;-141.84;71.85;18797.78;5050617;28;20225;-64
2023/01/29 02:25:45;;;;;;;9.30;6.70;;;-1.80;99.90;;;-141.84;71.78;18846.56;5038981;28;20221;-64
2023/01/29 02:28:30;;;;;;;10.20;7.13;;;-1.80;99.90;;;-141.84;71.92;18777.47;5036478;28;20352;-63
2023/01/29 02:31:09;;;;;;;9.43;7.13;;;-1.80;99.90;;;-141.84;71.77;18834.38;5050522;28;20228;-63
2023/01/29 02:33:52;;;;;;;8.03;6.70;;;-1.70;99.90;;;-141.84;71.59;18807.94;5050750;28;20228;-63
2023/01/29 02:36:34;;;;;;;9.53;6.93;;;-1.80;99.90;;;-141.84;71.05;18836.41;5050680;28;20217;-64
2023/01/29 02:39:17;;;;;;;8.97;6.60;;;-1.70;99.90;;;-141.84;71.11;18818.09;5050905;28;20193;-62
2023/01/29 02:41:58;;;;;;;8.93;6.43;;;-1.70;99.90;;;-141.84;71.56;18828.28;5050710;28;20191;-63
2023/01/29 02:44:37;;;;;;;9.53;6.97;;;-1.70;99.90;;;-141.84;71.62;18807.94;5050793;28;20263;-63
2023/01/29 02:47:16;;;;;;;10.23;7.70;;;-1.70;99.90;;;-141.84;72.22;18824.22;5042590;28;20228;-63
2023/01/29 02:49:52;;;;;;;10.67;7.33;;;-1.80;99.90;;;-141.84;72.09;18830.31;5030184;28;20228;-64
2023/01/29 02:52:30;;;;;;;10.00;7.30;;;-1.80;99.90;;;-141.84;72.00;18836.41;5049961;28;20233;-63
2023/01/29 02:55:08;;;;;;;10.10;7.33;;;-1.70;99.90;;;-141.84;72.35;18832.34;5050475;28;20807;-63
2023/01/29 02:57:42;;;;;;;8.57;6.97;;;-1.80;99.90;;;-141.84;72.47;18826.25;5050288;28;20245;-63
2023/01/29 03:00:17;;;;;;;9.57;7.77;;;-1.80;99.90;;;-141.84;71.78;18838.44;5050338;28;20194;-64
2023/01/29 03:02:55;;;;;;;10.30;7.33;;;-1.80;99.90;;;-141.84;71.72;18848.59;5050351;28;20200;-64
2023/01/29 03:05:32;;;;;;;9.20;7.40;;;-1.80;99.90;;;-141.84;71.55;18834.38;5050735;28;20232;-63
2023/01/29 03:08:10;;;;;;;9.53;7.10;;;-1.70;99.90;;;-141.84;71.43;18862.81;5050123;28;20565;-63
2023/01/29 03:10:44;;;;;;;9.77;7.20;;;-1.70;99.90;;;-141.84;71.49;18793.72;5050264;28;20577;-60
2023/01/29 03:13:21;;;;;;;10.77;7.47;;;-1.80;99.90;;;-141.84;71.53;18828.28;5050037;28;20236;-59
2023/01/29 03:16:00;;;;;;;10.70;7.40;;;-1.70;99.90;;;-141.84;71.83;18820.16;5049854;28;20722;-59
2023/01/29 03:18:39;;;;;;;11.10;7.80;;;-1.80;99.90;;;-141.84;72.81;18840.47;5050088;28;20228;-59
2023/01/29 03:32:31;;;;;;;10.80;7.73;;;-1.90;99.90;;;-141.84;72.62;18809.97;5050255;28;20243;-59
2023/01/29 03:35:06;;;;;;;11.47;8.07;;;-1.90;99.90;;;-141.84;73.29;18805.91;5050218;28;20237;-60
2023/01/29 03:37:41;;;;;;;10.57;7.30;;;-1.90;99.90;;;-141.84;73.06;18777.47;5050166;28;20247;-58
2023/01/29 03:40:12;;;;;;;10.70;8.27;;;-1.90;99.90;;;-141.84;72.55;18818.09;5052283;28;20238;-59
2023/01/29 03:43:03;;;;;;;11.50;8.43;;;-1.90;99.90;;;-141.84;72.99;18826.25;5053377;28;20620;-59
2023/01/29 03:45:42;;;;;;;12.33;8.60;;;-1.90;99.90;;;-141.84;73.25;18816.06;5053838;28;20216;-59
2023/01/29 03:48:28;;;;;;;10.63;7.37;;;-2.00;99.90;;;-141.84;73.81;18807.94;5037050;28;20197;-59
2023/01/29 03:51:09;;;;;;;13.47;8.43;;;-2.00;99.90;;;-141.84;73.42;18809.97;5041989;28;20236;-60
2023/01/29 03:53:48;;;;;;;11.87;8.10;;;-2.00;99.90;;;-141.84;73.26;18826.25;5053626;28;20573;-58
2023/01/29 03:56:34;;;;;;;11.00;8.10;;;-2.00;99.90;;;-141.84;72.77;18789.66;5053221;28;20236;-60
2023/01/29 03:59:10;;;;;;;11.83;8.00;;;-2.00;99.90;;;-141.84;72.94;18822.19;5050302;28;20336;-58
2023/01/29 04:01:47;;;;;;;11.10;8.07;;;-2.00;99.90;;;-141.84;73.11;18777.47;5049419;28;20857;-59
2023/01/29 04:04:24;;;;;;;12.37;8.50;;;-2.00;99.90;;;-141.84;73.80;18809.97;5053096;28;20251;-60
2023/01/29 04:06:57;;;;;;;11.60;8.23;;;-2.00;99.90;;;-141.84;73.87;18781.53;5054358;28;20231;-57
2023/01/29 04:09:32;;;;;;;10.73;7.87;;;-1.90;99.90;;;-141.84;73.90;18830.31;5053162;28;20236;-61
2023/01/29 04:12:07;;;;;;;10.83;8.00;;;-1.90;99.90;;;-141.84;72.99;18807.94;5052849;28;20213;-59
2023/01/29 04:14:38;;;;;;;10.87;7.50;;;-1.80;99.90;;;-141.84;72.02;18830.31;5053143;28;20263;-58
2023/01/29 04:17:12;;;;;;;11.70;8.73;;;-1.70;99.90;;;-141.84;72.18;18834.38;5046353;28;20225;-58
2023/01/29 04:19:43;;;;;;;12.17;8.60;;;-1.70;99.90;;;-141.84;72.28;18805.91;5032779;28;20232;-59
2023/01/29 04:22:20;;;;;;;13.83;8.27;;;-1.70;99.90;;;-141.84;72.33;18793.72;5051381;28;20225;-58
2023/01/29 04:24:51;;;;;;;11.97;8.03;;;-1.70;99.90;;;-141.84;72.18;18783.56;5045729;28;20222;-58
2023/01/29 04:27:37;;;;;;;11.10;8.67;;;-1.60;99.90;;;-141.84;71.15;18836.41;5033029;28;20234;-59
2023/01/29 04:30:22;;;;;;;11.33;7.87;;;-1.60;99.90;;;-141.84;71.60;18836.41;5044569;28;20208;-58
2023/01/29 04:33:08;;;;;;;10.23;7.10;;;-1.50;99.90;;;-141.84;72.11;18832.34;5053096;28;20217;-58
2023/01/29 04:36:04;;;;;;;10.03;7.63;;;-1.60;99.90;;;-141.84;71.04;18868.91;5052589;28;20210;-59
2023/01/29 04:38:50;;;;;;;12.13;8.37;;;-1.60;99.90;;;-141.84;71.04;18805.91;5052939;28;20309;-59
2023/01/29 04:41:29;;;;;;;13.30;8.73;;;-1.60;99.90;;;-141.84;71.10;18805.91;5052327;28;20233;-59
2023/01/29 04:44:08;;;;;;;10.23;7.97;;;-1.50;99.90;;;-141.84;70.73;18834.38;5051878;28;20322;-59
2023/01/29 04:46:49;;;;;;;11.00;8.30;;;-1.50;99.90;;;-141.84;71.11;18850.63;5048668;28;20217;-58
2023/01/29 04:49:33;;;;;;;10.37;7.57;;;-1.50;99.90;;;-141.84;71.25;18838.44;5032209;28;20234;-59
2023/01/29 04:52:12;;;;;;;11.03;7.67;;;-1.50;99.90;;;-141.84;71.14;18822.19;5049192;28;20281;-58
2023/01/29 04:54:58;;;;;;;12.63;8.10;;;-1.50;99.90;;;-141.84;70.30;18818.09;5052079;28;20225;-59
2023/01/29 04:57:34;;;;;;;10.27;7.20;;;-1.50;99.90;;;-141.84;70.83;18826.25;5052293;28;20225;-59
2023/01/29 05:00:11;;;;;;;10.97;7.90;;;-1.40;99.90;;;-141.84;70.41;18842.50;5051733;28;20553;-60
2023/01/29 05:02:43;;;;;;;11.00;7.67;;;-1.40;99.90;;;-141.84;70.87;18826.25;5052494;28;20208;-59
2023/01/29 05:05:16;;;;;;;10.87;8.03;;;-1.40;99.90;;;-141.84;70.51;18842.50;5051862;28;20724;-59
2023/01/29 05:07:48;;;;;;;10.33;7.40;;;-1.40;99.90;;;-141.84;70.43;18870.94;5051788;28;20236;-57
2023/01/29 05:10:20;;;;;;;11.37;8.27;;;-1.40;99.90;;;-141.84;70.29;18838.44;5052229;28;20316;-58
2023/01/29 05:12:56;;;;;;;10.50;7.63;;;-1.40;99.90;;;-141.84;69.96;18830.31;5050113;28;20217;-58
2023/01/29 05:15:33;;;;;;;9.70;7.30;;;-1.40;99.90;;;-141.84;69.80;18814.03;5031343;28;20235;-59
2023/01/29 05:18:01;;;;;;;9.30;7.20;;;-1.40;99.90;;;-141.84;69.38;18868.91;5047017;28;20217;-60
2023/01/29 05:20:34;;;;;;;10.77;7.77;;;-1.30;99.90;;;-141.84;70.06;18877.03;5052299;28;20565;-59
2023/01/29 05:23:03;;;;;;;11.37;7.90;;;-1.30;99.90;;;-141.84;69.67;18830.31;5051667;28;20232;-59
2023/01/29 05:25:34;;;;;;;11.70;8.17;;;-1.30;99.90;;;-141.84;69.36;18826.25;5051641;28;20238;-60
2023/01/29 05:28:04;;;;;;;10.67;7.47;;;-1.30;99.90;;;-141.84;69.42;18844.53;5051742;28;20229;-59
2023/01/29 05:30:35;;;;;;;12.83;8.50;;;-1.30;99.90;;;-141.84;69.83;18824.22;5051408;28;20233;-59
2023/01/29 05:33:05;;;;;;;12.30;7.40;;;-1.30;99.90;;;-141.84;69.96;18854.69;5051609;28;20253;-59
2023/01/29 05:35:33;;;;;;;10.40;8.00;;;-1.30;99.90;;;-141.84;70.22;18840.47;5051765;28;20659;-60
2023/01/29 05:38:03;;;;;;;10.87;7.30;;;-1.30;99.90;;;-141.84;69.19;18846.56;5051324;28;20776;-59
2023/01/29 05:40:31;;;;;;;9.60;7.30;;;-1.20;99.90;;;-141.84;69.85;18844.53;5051258;28;20259;-60
2023/01/29 05:42:59;;;;;;;12.13;8.30;;;-1.30;99.90;;;-141.84;69.41;18854.69;5051417;28;20223;-58
2023/01/29 05:45:28;;;;;;;10.77;7.83;;;-1.20;99.90;;;-141.84;69.17;18848.59;5051072;28;20229;-59
2023/01/29 05:47:57;;;;;;;10.70;7.50;;;-1.20;99.90;;;-141.84;69.22;18838.44;5036951;28;20202;-60
2023/01/29 05:50:27;;;;;;;9.43;7.43;;;-1.20;99.90;;;-141.84;69.34;18838.44;5035170;28;20225;-59
2023/01/29 05:52:59;;;;;;;12.57;8.13;;;-1.20;99.90;;;-141.84;69.64;18816.06;5051005;28;20244;-59
2023/01/29 05:55:29;;;;;;;11.20;8.07;;;-1.20;99.90;;;-141.84;69.91;18818.09;5051114;28;20223;-60
2023/01/29 05:57:57;;;;;;;11.50;8.07;;;-1.20;99.90;;;-141.84;69.90;18856.72;5050922;28;20308;-59
2023/01/29 06:00:26;;;;;;;9.90;8.00;;;-1.20;99.90;;;-141.84;69.92;18836.41;5050965;28;20226;-59
2023/01/29 06:02:54;;;;;;;10.03;7.47;;;-1.20;99.90;;;-141.84;69.62;18838.44;5051077;28;20205;-59
2023/01/29 06:05:22;;;;;;;10.77;8.07;;;-1.20;99.90;;;-141.84;69.48;18848.59;5050846;28;20261;-61
2023/01/29 06:07:50;;;;;;;9.70;7.40;;;-1.20;99.90;;;-141.84;70.01;18852.66;5050860;28;20759;-59
2023/01/29 06:10:19;;;;;;;11.37;7.70;;;-1.20;99.90;;;-141.84;70.14;18866.88;5048060;28;20252;-60
2023/01/29 06:12:49;;;;;;;12.93;8.37;;;-1.30;99.90;;;-141.84;69.55;18846.56;5047116;28;20243;-60
2023/01/29 06:15:18;;;;;;;10.27;7.70;;;-1.20;99.90;;;-141.84;69.21;18870.94;5030244;28;20238;-60
2023/01/29 06:17:46;;;;;;;9.60;7.37;;;-1.10;99.90;;;-141.84;69.15;18862.81;5030916;28;20206;-59
2023/01/29 06:20:14;;;;;;;10.47;7.30;;;-1.10;99.90;;;-141.84;69.48;18848.59;5030409;28;20498;-59
2023/01/29 06:22:43;;;;;;;12.03;7.87;;;-1.10;99.90;;;-141.84;69.49;18848.59;5031032;28;20308;-59
2023/01/29 06:25:11;;;;;;;9.67;7.27;;;-1.10;99.90;;;-141.84;69.48;18846.56;5030810;28;20229;-60
2023/01/29 06:27:39;;;;;;;11.63;7.90;;;-1.10;99.90;;;-141.84;69.34;18842.50;5030752;28;20712;-59
2023/01/29 06:30:11;;;;;;;9.63;7.07;;;-1.10;99.90;;;-141.84;69.43;18846.56;5043053;28;20207;-59
2023/01/29 06:32:39;;;;;;;9.17;7.20;;;-1.10;99.90;;;-141.84;70.22;18834.38;5051303;28;20189;-61
2023/01/29 06:35:09;;;;;;;9.67;7.60;;;-1.10;99.90;;;-141.84;70.39;18838.44;5050442;28;20233;-61
2023/01/29 06:37:37;;;;;;;9.80;7.53;;;-1.10;99.90;;;-141.84;69.73;18834.38;5050696;28;20233;-59
2023/01/29 06:40:06;;;;;;;14.20;8.50;;;-1.00;99.90;;;-141.84;69.67;18830.31;5050510;28;20224;-60
2023/01/29 06:42:35;;;;;;;10.93;8.07;;;-0.90;99.90;;;-141.84;69.20;18875.00;5050364;28;20771;-60
2023/01/29 06:45:04;;;;;;;10.10;7.27;;;-0.90;99.90;;;-141.84;68.98;18866.88;5050535;28;20201;-59
2023/01/29 06:47:34;;;;;;;9.23;6.90;;;-0.90;99.90;;;-141.84;68.71;18889.22;5039774;28;20213;-59
2023/01/29 06:50:02;;;;;;;10.90;8.17;;;-0.80;99.90;;;-141.84;69.43;18875.00;5031242;28;20231;-60
2023/01/29 06:52:30;;;;;;;11.97;8.50;;;-0.80;99.90;;;-141.84;68.69;18852.66;5050236;28;20231;-59
2023/01/29 06:54:58;;;;;;;10.07;7.93;;;-0.80;99.90;;;-141.84;68.85;18883.13;5050145;28;20225;-60
2023/01/29 06:57:29;;;;;;;11.03;7.77;;;-0.80;99.90;;;-141.84;68.51;18862.81;5050309;28;20228;-60
2023/01/29 06:59:58;;;;;;;9.90;7.90;;;-0.80;99.90;;;-141.84;68.69;18852.66;5050213;28;20685;-59
2023/01/29 07:02:26;;;;;;;11.03;7.33;;;-0.80;99.90;;;-141.84;68.45;18879.06;5050216;28;20671;-59
2023/01/29 07:04:56;;;;;;;9.93;7.80;;;-0.80;99.90;;;-141.84;68.84;18872.97;5049992;28;20233;-59
2023/01/29 07:07:24;;;;;;;11.13;8.30;;;-0.80;99.90;;;-141.84;69.01;18840.47;5030615;28;20234;-60
2023/01/29 07:09:52;;;;;;;11.53;8.13;;;-0.80;99.90;;;-141.84;69.46;18870.94;5039354;28;20233;-60
2023/01/29 07:12:20;;;;;;;10.63;8.00;;;-0.90;99.90;;;-141.84;69.50;18846.56;5049732;28;20688;-60
2023/01/29 07:14:48;;;;;;;10.47;8.40;;;-0.80;99.90;;;-141.84;69.66;18854.69;5051715;28;20229;-59
2023/01/29 07:17:16;;;;;;;10.43;8.17;;;-0.80;99.90;;;-141.84;69.06;18879.06;5053450;28;20236;-59
2023/01/29 07:19:44;;;;;;;12.57;8.87;;;-0.70;99.90;;;-141.84;69.28;18875.00;5039338;28;20240;-59
2023/01/29 07:22:15;;;;;;;11.40;8.13;;;-0.60;99.90;;;-141.84;69.14;18889.22;5033576;28;20227;-65
2023/01/29 07:24:44;;;;;;;11.00;8.37;;;-0.70;99.90;;;-141.84;68.73;18891.25;5033663;28;20237;-65
2023/01/29 07:27:12;;;;;;;11.03;8.50;;;-0.60;99.90;;;-141.84;68.83;18846.56;5033887;28;20213;-64
2023/01/29 07:29:40;;;;;;;13.37;8.77;;;-0.60;99.90;;;-141.84;68.68;18864.84;5034125;28;20210;-65
2023/01/29 07:32:08;;;;;;;10.97;8.80;;;-0.60;99.90;;;-141.84;68.94;18879.06;5033359;28;20239;-64
2023/01/29 07:34:36;;;;;;;11.93;8.90;;;-0.50;99.90;;;-141.84;68.69;18866.88;5033399;28;20288;-64
2023/01/29 07:37:05;;;;;;;12.27;8.77;;;-0.40;99.90;;;-141.84;68.31;18879.06;5033597;28;20230;-64
2023/01/29 07:39:34;;;;;;;11.17;8.43;;;-0.40;99.90;;;-141.84;68.95;18877.03;5033341;28;20306;-64
2023/01/29 07:42:02;;;;;;;10.90;8.67;;;-0.30;99.90;;;-141.84;68.76;18862.81;5033468;28;20210;-63
2023/01/29 07:44:30;;;;;;;11.70;8.70;;;-0.40;99.90;;;-141.84;68.58;18856.72;5033796;28;20207;-65
2023/01/29 07:46:59;;;;;;;10.97;8.70;;;-0.40;99.90;;;-141.84;68.78;18889.22;5033997;28;20218;-63
2023/01/29 07:49:27;;;;;;;12.60;9.07;;;-0.40;99.90;;;-141.84;68.72;18868.91;5033190;28;20624;-63
2023/01/29 07:51:55;;;;;;;12.10;8.67;;;-0.40;99.90;;;-141.84;69.22;18872.97;5049343;28;20242;-64
2023/01/29 07:54:23;;;;;;;14.70;9.27;;;-0.40;99.90;;;-141.84;69.07;18864.84;5053257;28;20235;-64
2023/01/29 07:56:52;;;;;;;15.50;9.60;;;-0.40;99.90;;;-141.84;69.01;18915.63;5053384;28;20630;-63
2023/01/29 07:59:20;;;;;;;12.23;8.67;;;-0.30;99.90;;;-141.84;68.94;18891.25;5052719;28;20233;-65
2023/01/29 08:01:49;;;;;;;12.97;9.60;;;-0.30;99.90;;;-141.84;68.78;18885.16;5051481;28;20228;-63
2023/01/29 08:04:17;;;;;;;11.03;8.43;;;-0.30;99.90;;;-141.84;68.91;18879.06;5052878;28;20225;-64
2023/01/29 08:06:45;;;;;;;12.23;9.30;;;-0.30;99.90;;;-141.84;69.47;18846.56;5037962;28;20226;-64
2023/01/29 08:09:13;;;;;;;13.20;9.70;;;-0.30;99.90;;;-141.84;69.63;18893.28;5033095;28;20215;-65
2023/01/29 08:11:41;;;;;;;13.20;9.17;;;-0.30;99.90;;;-141.84;70.21;18883.13;5033278;28;20201;-64
2023/01/29 08:14:11;;;;;;;14.43;9.90;;;-0.30;99.90;;;-141.84;71.12;18852.66;5032262;28;20238;-64
2023/01/29 08:16:39;;;;;;;12.87;9.57;;;-0.30;99.90;;;-141.84;70.52;18870.94;5032223;28;20228;-63
2023/01/29 08:19:07;;;;;;;14.10;9.70;;;-0.30;99.90;;;-141.84;70.14;18887.19;5032310;28;20230;-64
2023/01/29 08:21:35;;;;;;;14.57;10.10;;;-0.20;99.90;;;-141.84;70.04;18866.88;5032818;28;20255;-64
2023/01/29 08:24:04;;;;;;;12.63;9.53;;;-0.10;99.90;;;-141.84;69.58;18860.78;5032802;28;20198;-64
2023/01/29 08:26:33;;;;;;;14.73;9.73;;;-0.20;99.90;;;-141.84;69.87;18879.06;5032361;28;20662;-64
2023/01/29 08:29:01;;;;;;;14.77;10.33;;;-0.10;99.90;;;-141.84;69.78;18889.22;5035336;28;21006;-63
2023/01/29 08:31:30;;;;;;;13.90;10.60;;;-0.10;99.90;;;-141.84;69.46;18885.16;5051799;28;20259;-64
2023/01/29 08:33:59;;;;;;;14.00;10.27;;;-0.20;99.90;;;-141.84;69.04;18885.16;5051796;28;20781;-63
2023/01/29 08:36:27;;;;;;;13.43;10.10;;;-0.10;99.90;;;-141.84;69.78;18913.59;5052227;28;20223;-66
2023/01/29 08:38:55;;;;;;;16.40;10.33;;;-0.10;99.90;;;-141.84;70.37;18891.25;5052728;28;20675;-64
2023/01/29 08:41:23;;;;;;;15.83;10.90;;;-0.20;99.90;;;-141.84;71.23;18875.00;5052176;28;20214;-63
2023/01/29 08:43:51;;;;;;;15.67;10.53;;;-0.20;99.90;;;-141.84;71.73;18834.38;5039860;28;20226;-64
2023/01/29 08:46:19;;;;;;;14.53;11.23;;;-0.20;99.90;;;-141.84;72.07;18875.00;5033068;28;20223;-63
2023/01/29 08:48:49;;;;;;;16.03;10.80;;;-0.20;99.90;;;-141.84;72.57;18887.19;5050794;28;20821;-63
2023/01/29 08:51:17;;;;;;;13.63;10.40;;;-0.30;99.90;;;-141.84;72.97;18885.16;5051648;28;20268;-64
2023/01/29 08:53:46;;;;;;;14.80;10.03;;;-0.20;99.90;;;-141.84;73.27;18872.97;5052474;28;20197;-63
2023/01/29 08:56:15;;;;;;;15.73;10.67;;;-0.20;99.90;;;-141.84;72.33;18875.00;5051927;28;20237;-65
2023/01/29 08:58:43;;;;;;;13.87;9.90;;;-0.10;99.90;;;-141.84;72.41;18866.88;5051010;28;20256;-64
2023/01/29 09:01:14;;;;;;;14.60;10.27;;;-0.10;99.90;;;-141.84;72.18;18881.09;5031675;28;20232;-65
2023/01/29 09:03:43;;;;;;;14.10;10.07;;;-0.10;99.90;;;-141.84;71.66;18911.56;5031816;28;20311;-64
2023/01/29 09:06:14;;;;;;;15.63;10.23;;;-0.10;99.90;;;-141.84;71.48;18875.00;5031477;28;20222;-65
2023/01/29 09:08:43;;;;;;;15.97;10.57;;;0.00;99.90;;;-141.84;71.62;18881.09;5032309;28;20190;-63
2023/01/29 09:11:11;;;;;;;13.37;9.70;;;0.00;99.90;;;-141.84;71.51;18881.09;5031754;28;20239;-64
2023/01/29 09:13:39;;;;;;;14.37;9.40;;;0.00;99.90;;;-141.84;71.56;18875.00;5031155;28;20245;-63
2023/01/29 09:16:08;;;;;;;14.30;10.13;;;-0.10;99.90;;;-141.84;71.48;18893.28;5033546;28;20236;-64
2023/01/29 09:18:36;;;;;;;15.97;10.23;;;-0.10;99.90;;;-141.84;71.64;18885.16;5031760;28;20260;-63
2023/01/29 09:21:05;;;;;;;14.13;9.93;;;0.00;99.90;;;-141.84;70.88;18877.03;5032150;28;20645;-63
2023/01/29 09:23:35;;;;;;;13.60;10.27;;;0.00;99.90;;;-141.84;70.95;18885.16;5032473;28;20204;-64
2023/01/29 09:26:04;;;;;;;16.53;10.60;;;0.00;99.90;;;-141.84;70.85;18905.47;5030490;28;20230;-63
2023/01/29 09:28:32;;;;;;;16.63;11.13;;;0.00;99.90;;;-141.84;70.78;18909.53;5030508;28;20240;-63
2023/01/29 09:31:01;;;;;;;15.20;10.77;;;0.10;99.90;;;-141.84;70.01;18895.31;5029984;28;20238;-63
2023/01/29 09:33:31;;;;;;;17.67;10.53;;;0.20;99.90;;;-141.84;69.67;18887.19;5030886;28;20224;-64
2023/01/29 09:35:59;;;;;;;14.20;10.33;;;0.20;99.90;;;-141.84;70.13;18901.41;5029662;28;20318;-64
2023/01/29 09:38:27;;;;;;;15.73;10.97;;;0.30;99.90;;;-141.84;69.56;18905.47;5030134;28;20205;-63
2023/01/29 09:41:08;;;;;;;14.13;10.20;;;0.30;99.90;;;-141.84;68.87;18915.63;5047333;28;20357;-66
2023/01/29 09:43:47;;;;;;;14.63;10.40;;;0.40;99.90;;;-141.84;69.02;18923.78;5041309;28;20233;-63
2023/01/29 09:46:23;;;;;;;15.53;10.70;;;0.50;99.90;;;-141.84;68.85;18919.69;5030519;28;20242;-64
2023/01/29 09:49:00;;;;;;;14.40;9.90;;;0.50;99.90;;;-141.84;68.81;18929.88;5049358;28;20598;-64
2023/01/29 09:51:35;;;;;;;14.97;9.87;;;0.50;99.90;;;-141.84;67.93;18893.28;5047294;28;20250;-64
2023/01/29 09:54:19;;;;;;;16.10;10.13;;;0.60;99.90;;;-141.84;68.08;18923.78;5048694;28;20222;-64
2023/01/29 09:56:54;;;;;;;15.80;10.90;;;0.70;99.90;;;-141.84;68.72;18940.03;5050691;28;20221;-63
2023/01/29 09:59:27;;;;;;;14.30;9.73;;;0.70;99.90;;;-141.84;67.84;18901.41;5043876;28;20229;-63
2023/01/29 10:02:09;;;;;;;15.30;10.30;;;0.70;99.90;;;-141.84;67.28;18942.06;5038939;28;20235;-63
2023/01/29 10:05:13;;;;;;;16.47;10.20;;;0.80;99.90;;;-141.84;67.24;18911.56;5039538;28;20315;-63
2023/01/29 10:08:25;;;;;;;14.60;10.00;;;0.80;99.90;;;-141.84;68.19;18899.38;5038853;28;20218;-63
2023/01/29 10:11:02;;;;;;;16.73;10.43;;;0.80;99.90;;;-141.84;67.93;18942.06;5036020;28;20724;-64
2023/01/29 10:13:44;;;;;;;13.40;9.83;;;0.80;99.90;;;-141.84;67.50;18950.19;5042217;28;21069;-64
2023/01/29 10:16:32;;;;;;;14.10;10.03;;;0.90;99.90;;;-141.84;67.19;18942.06;5039686;28;20241;-63
2023/01/29 10:19:44;;;;;;;14.40;9.93;;;0.90;99.90;;;-141.84;66.66;18948.16;5034291;28;20592;-63
2023/01/29 10:22:55;;;;;;;15.33;10.67;;;1.00;99.90;;;-141.84;65.88;18972.53;5033604;28;20236;-63
2023/01/29 10:25:23;;;;;;;14.43;10.00;;;1.20;99.90;;;-141.84;66.58;18950.19;5039544;28;20253;-63
2023/01/29 10:27:56;;;;;;;13.83;10.17;;;1.20;99.90;;;-141.84;66.80;18948.16;5033876;28;20283;-64
2023/01/29 10:30:33;;;;;;;13.80;9.83;;;1.20;99.90;;;-141.84;66.56;18984.72;5040367;28;21003;-64
2023/01/29 10:33:05;;;;;;;15.37;10.47;;;1.30;99.90;;;-141.84;65.77;18984.72;5035061;28;20582;-62
2023/01/29 10:35:39;;;;;;;14.83;10.67;;;1.30;99.90;;;-141.84;66.68;18940.03;5039915;28;20217;-65
2023/01/29 10:38:31;;;;;;;13.70;9.30;;;1.30;99.90;;;-141.84;66.49;18956.28;5040006;28;20232;-63
2023/01/29 10:41:17;;;;;;;13.73;9.57;;;1.30;99.90;;;-141.84;65.96;18968.47;5034938;28;20226;-64
2023/01/29 10:44:04;;;;;;;14.60;9.93;;;1.20;99.90;;;-141.84;65.37;18988.78;5035414;28;20270;-64
2023/01/29 10:47:02;;;;;;;14.90;10.10;;;1.40;99.90;;;-141.84;65.97;18954.25;5041569;28;20244;-64